createdAt,value
2023-04-14T00:00:43.723Z,99.9
2023-04-14T00:04:46.928Z,99.9
2023-04-14T00:06:44.325Z,99.9
2023-04-14T00:08:41.917Z,99.9
2023-04-14T00:10:39.468Z,99.9
2023-04-14T00:12:37.039Z,99.9
2023-04-14T00:16:32.205Z,99.9
2023-04-14T00:18:37.654Z,99.9
2023-04-14T00:26:27.891Z,99.9
2023-04-14T00:32:28.655Z,99.9
2023-04-14T00:40:18.815Z,99.9
2023-04-14T00:44:13.923Z,99.9
2023-04-14T00:46:19.452Z,99.9
2023-04-14T00:48:16.965Z,99.9
2023-04-14T00:50:15.403Z,99.9
2023-04-14T00:52:37.731Z,99.9
2023-04-14T00:54:35.318Z,99.9
2023-04-14T00:56:32.899Z,99.9
2023-04-14T00:58:38.341Z,99.9
2023-04-14T01:00:35.916Z,99.9
2023-04-14T01:02:33.726Z,99.9
2023-04-14T01:04:40.467Z,99.9
2023-04-14T01:10:23.797Z,99.9
2023-04-14T01:12:29.254Z,99.9
2023-04-14T01:14:26.818Z,99.9
2023-04-14T01:20:19.519Z,99.9
2023-04-14T01:34:11.891Z,99.9
2023-04-14T01:38:06.978Z,99.9
2023-04-14T01:40:13.523Z,99.9
2023-04-14T01:42:09.979Z,99.9
2023-04-14T01:44:07.539Z,99.9
2023-04-14T01:45:10.261Z,99.9
2023-04-14T01:47:07.817Z,99.9
2023-04-14T01:49:05.402Z,99.9
2023-04-14T01:51:02.956Z,99.9
2023-04-14T01:53:08.424Z,99.9
2023-04-14T01:55:05.974Z,99.9
2023-04-14T01:57:03.571Z,99.9
2023-04-14T02:02:56.402Z,99.9
2023-04-14T02:06:59.224Z,99.9
2023-04-14T02:12:51.925Z,99.9
2023-04-14T02:14:49.477Z,99.9
2023-04-14T02:18:44.594Z,99.9
2023-04-14T02:20:50.037Z,99.9
2023-04-14T02:22:47.622Z,99.9
2023-04-14T02:26:42.715Z,99.9
2023-04-14T02:28:40.261Z,99.9
2023-04-14T02:38:35.912Z,99.9
2023-04-14T02:39:38.646Z,99.9
2023-04-14T02:45:31.305Z,99.9
2023-04-14T02:47:36.775Z,99.9
2023-04-14T02:55:26.955Z,99.9
2023-04-14T03:01:27.545Z,99.9
2023-04-14T03:03:25.088Z,99.9
2023-04-14T03:05:23.495Z,99.9
2023-04-14T03:07:20.145Z,99.9
2023-04-14T03:09:17.659Z,99.9
2023-04-14T03:11:15.234Z,99.9
2023-04-14T03:13:12.801Z,99.9
2023-04-14T03:15:18.255Z,99.9
2023-04-14T03:17:15.797Z,99.9
2023-04-14T03:19:13.337Z,99.9
2023-04-14T03:21:10.853Z,99.9
2023-04-14T03:25:05.930Z,99.9
2023-04-14T03:27:03.474Z,99.9
2023-04-14T03:29:08.896Z,99.9
2023-04-14T03:36:04.285Z,99.9
2023-04-14T03:38:01.813Z,99.9
2023-04-14T03:39:59.374Z,99.9
2023-04-14T03:42:04.806Z,99.9
2023-04-14T03:44:02.335Z,99.9
2023-04-14T03:45:59.903Z,99.9
2023-04-14T03:47:57.500Z,99.9
2023-04-14T03:49:54.992Z,99.9
2023-04-14T03:53:50.111Z,99.9
2023-04-14T03:55:55.500Z,99.9
2023-04-14T03:57:53.071Z,99.9
2023-04-14T03:59:50.617Z,99.9
2023-04-14T04:03:45.989Z,99.9
2023-04-14T04:05:43.255Z,99.9
2023-04-14T04:07:40.786Z,99.9
2023-04-14T04:09:46.244Z,99.9
2023-04-14T04:11:43.793Z,99.9
2023-04-14T04:17:36.440Z,99.9
2023-04-14T04:27:31.980Z,99.9
2023-04-14T04:29:52.791Z,99.9
2023-04-14T04:31:50.356Z,99.9
2023-04-14T04:33:47.891Z,99.9
2023-04-14T04:35:53.321Z,99.9
2023-04-14T04:37:50.843Z,99.9
2023-04-14T04:39:48.407Z,99.9
2023-04-14T04:41:45.925Z,99.9
2023-04-14T04:43:43.481Z,99.9
2023-04-14T04:45:41.036Z,99.9
2023-04-14T04:47:38.676Z,99.9
2023-04-14T04:49:43.978Z,99.9
2023-04-14T04:51:41.509Z,99.9
2023-04-14T04:59:31.700Z,99.9
2023-04-14T05:01:29.013Z,99.9
2023-04-14T05:03:34.443Z,99.9
2023-04-14T05:05:32.285Z,99.9
2023-04-14T05:07:29.513Z,99.9
2023-04-14T05:09:27.041Z,99.9
2023-04-14T05:11:24.607Z,99.9
2023-04-14T05:13:22.135Z,99.9
2023-04-14T05:15:19.666Z,99.9
2023-04-14T05:17:25.138Z,99.9
2023-04-14T05:19:22.666Z,99.9
2023-04-14T05:21:20.168Z,99.9
2023-04-14T05:30:20.981Z,99.9
2023-04-14T05:34:16.076Z,99.9
2023-04-14T05:36:13.614Z,99.9
2023-04-14T05:38:11.133Z,99.9
2023-04-14T05:42:06.263Z,99.9
2023-04-14T05:44:11.681Z,99.9
2023-04-14T05:46:09.296Z,99.9
2023-04-14T05:48:06.827Z,99.9
2023-04-14T05:52:01.829Z,99.9
2023-04-14T05:55:56.915Z,99.9
2023-04-14T05:58:02.371Z,99.9
2023-04-14T06:03:55.351Z,99.9
2023-04-14T06:05:52.544Z,99.9
2023-04-14T06:07:50.089Z,99.9
2023-04-14T06:09:47.637Z,99.9
2023-04-14T06:11:53.073Z,99.9
2023-04-14T06:15:48.186Z,99.9
2023-04-14T06:16:51.103Z,99.9
2023-04-14T06:18:48.484Z,99.9
2023-04-14T06:20:45.958Z,99.9
2023-04-14T06:22:43.520Z,99.9
2023-04-14T06:24:48.942Z,99.9
2023-04-14T06:26:46.505Z,99.9
2023-04-14T06:28:44.457Z,99.9
2023-04-14T06:30:41.601Z,99.9
2023-04-14T06:32:39.209Z,99.9
2023-04-14T06:50:25.055Z,99.9
2023-04-14T06:52:30.516Z,99.9
2023-04-14T06:54:28.048Z,99.9
2023-04-14T07:00:20.709Z,99.9
2023-04-14T07:02:18.288Z,99.9
2023-04-14T07:04:15.923Z,99.9
2023-04-14T07:08:18.754Z,99.9
2023-04-14T07:11:19.035Z,99.9
2023-04-14T07:13:16.626Z,99.9
2023-04-14T07:19:18.729Z,99.9
2023-04-14T07:21:16.290Z,99.9
2023-04-14T07:23:13.862Z,99.9
2023-04-14T07:25:11.437Z,99.9
2023-04-14T07:29:06.582Z,99.9
2023-04-14T07:35:07.162Z,99.8
2023-04-14T07:37:04.769Z,99.8
2023-04-14T07:39:02.361Z,99.8
2023-04-14T07:40:59.898Z,99.7
2023-04-14T07:42:57.465Z,99.7
2023-04-14T07:44:55.051Z,99.6
2023-04-14T07:47:00.515Z,99.4
2023-04-14T07:48:58.113Z,99.3
2023-04-14T07:52:53.276Z,99.1
2023-04-14T07:54:50.852Z,99.1
2023-04-14T07:56:48.413Z,99
2023-04-14T07:58:46.024Z,98.7
2023-04-14T08:00:51.487Z,97.6
2023-04-14T08:02:49.298Z,96.6
2023-04-14T08:07:13.578Z,95.4
2023-04-14T08:09:11.188Z,95
2023-04-14T08:13:14.248Z,93.9
2023-04-14T08:15:11.873Z,93.5
2023-04-14T08:17:09.449Z,93.2
2023-04-14T08:21:04.617Z,92.4
2023-04-14T08:23:02.197Z,91.4
2023-04-14T08:32:58.961Z,85.5
2023-04-14T08:35:34.910Z,84
2023-04-14T08:36:53.329Z,83.1
2023-04-14T08:38:50.877Z,82.1
2023-04-14T08:40:56.368Z,79.3
2023-04-14T08:42:53.980Z,79
2023-04-14T08:44:51.599Z,78.4
2023-04-14T08:46:49.196Z,77.7
2023-04-14T08:48:46.826Z,76.7
2023-04-14T08:58:42.748Z,70.1
2023-04-14T08:59:45.541Z,69.9
2023-04-14T09:03:40.860Z,68.6
2023-04-14T09:05:38.348Z,67.8
2023-04-14T09:07:43.852Z,66
2023-04-14T09:13:36.653Z,64.4
2023-04-14T09:17:31.960Z,63.5
2023-04-14T09:23:32.639Z,60.4
2023-04-14T09:25:30.206Z,59.9
2023-04-14T09:29:25.406Z,59.7
2023-04-14T09:31:23.034Z,59.3
2023-04-14T09:35:26.120Z,58.7
2023-04-14T09:41:18.984Z,57.9
2023-04-14T09:43:16.570Z,57.5
2023-04-14T09:45:14.198Z,56.9
2023-04-14T09:47:11.781Z,56.5
2023-04-14T09:53:12.551Z,55.3
2023-04-14T09:54:15.281Z,54.4
2023-04-14T09:58:10.510Z,53.9
2023-04-14T10:02:13.721Z,52
2023-04-14T10:04:11.265Z,51.6
2023-04-14T10:06:08.819Z,51.1
2023-04-14T10:08:06.427Z,50.8
2023-04-14T10:12:01.664Z,50.6
2023-04-14T10:13:59.256Z,50.6
2023-04-14T10:16:04.928Z,50.9
2023-04-14T10:18:02.404Z,50.6
2023-04-14T10:20:00.026Z,49.5
2023-04-14T10:37:46.445Z,46.7
2023-04-14T10:39:43.997Z,46.4
2023-04-14T10:48:45.114Z,43.5
2023-04-14T10:50:42.701Z,43.3
2023-04-14T10:52:40.325Z,43.1
2023-04-14T10:54:37.941Z,43.1
2023-04-14T10:56:43.448Z,42.9
2023-04-14T11:02:36.339Z,44
2023-04-14T11:26:23.284Z,41.3
2023-04-14T11:28:20.853Z,41
2023-04-14T11:32:16.108Z,40.1
2023-04-14T11:34:13.575Z,39.8
2023-04-14T11:38:16.655Z,39.9
2023-04-14T11:40:14.380Z,40.7
2023-04-14T11:42:11.783Z,42
2023-04-14T11:44:38.641Z,42
2023-04-14T11:54:34.453Z,41.2
2023-04-14T11:56:31.983Z,41.5
2023-04-14T11:58:29.487Z,41.8
2023-04-14T12:00:27.057Z,42.2
2023-04-14T12:02:24.733Z,42.3
2023-04-14T12:04:30.233Z,41.5
2023-04-14T12:06:27.646Z,41.3
2023-04-14T12:08:25.193Z,40.5
2023-04-14T12:10:24.681Z,40.1
2023-04-14T12:12:20.409Z,39.9
2023-04-14T12:14:17.819Z,39.5
2023-04-14T12:20:19.037Z,37.8
2023-04-14T12:22:15.862Z,37.5
2023-04-14T12:24:13.346Z,37.6
2023-04-14T12:28:08.414Z,37.6
2023-04-14T12:30:05.862Z,37.9
2023-04-14T12:32:11.302Z,38
2023-04-14T12:34:08.817Z,37.7
2023-04-14T12:37:08.992Z,37.6
2023-04-14T12:43:01.383Z,36.7
2023-04-14T12:47:04.312Z,37
2023-04-14T12:49:01.882Z,37.3
2023-04-14T12:50:59.193Z,37.3
2023-04-14T12:54:54.151Z,37.2
2023-04-14T12:56:53.207Z,37.1
2023-04-14T13:00:56.088Z,36.5
2023-04-14T13:02:53.683Z,36.4
2023-04-14T13:04:51.024Z,36.2
2023-04-14T13:06:48.485Z,36
2023-04-14T13:10:44.194Z,35.6
2023-04-14T13:12:49.636Z,35.6
2023-04-14T13:16:44.664Z,35.5
2023-04-14T13:18:42.177Z,35.6
2023-04-14T13:20:39.678Z,35.7
2023-04-14T13:22:37.182Z,35.7
2023-04-14T13:24:34.694Z,35.9
2023-04-14T13:26:40.180Z,36.4
2023-04-14T13:28:37.870Z,36.5
2023-04-14T13:30:35.220Z,36.4
2023-04-14T13:35:33.031Z,34.6
2023-04-14T13:39:35.989Z,34.1
2023-04-14T13:41:33.503Z,34.1
2023-04-14T13:45:28.530Z,34.3
2023-04-14T13:47:26.062Z,33.9
2023-04-14T13:49:23.539Z,33.2
2023-04-14T13:51:21.042Z,32.8
2023-04-14T13:53:26.489Z,31.9
2023-04-14T13:55:24.150Z,31.7
2023-04-14T13:57:21.452Z,31.3
2023-04-14T13:59:18.932Z,31.2
2023-04-14T14:01:16.451Z,31
2023-04-14T14:03:13.903Z,30.9
2023-04-14T14:05:11.283Z,30.7
2023-04-14T14:19:01.462Z,30.7
2023-04-14T14:23:04.129Z,29.7
2023-04-14T14:25:17.543Z,29.6
2023-04-14T14:26:04.240Z,29.9
2023-04-14T14:28:01.707Z,30.1
2023-04-14T14:29:59.112Z,30.6
2023-04-14T14:35:59.445Z,30.6
2023-04-14T14:37:58.051Z,29
2023-04-14T14:49:59.650Z,27.3
2023-04-14T14:55:41.652Z,25.5
2023-04-14T15:01:41.866Z,26.7
2023-04-14T15:03:39.487Z,27.1
2023-04-14T15:05:36.813Z,27.5
2023-04-14T15:13:26.528Z,29.9
2023-04-14T15:15:31.947Z,31.4
2023-04-14T15:17:29.490Z,31.5
2023-04-14T15:21:53.743Z,32
2023-04-14T15:25:48.809Z,31.8
2023-04-14T15:27:54.278Z,32
2023-04-14T15:29:51.800Z,32
2023-04-14T15:31:49.439Z,32.3
2023-04-14T15:33:46.873Z,32.4
2023-04-14T15:41:45.007Z,32.6
2023-04-14T15:47:37.748Z,32.8
2023-04-14T15:51:32.837Z,32.2
2023-04-14T15:53:30.402Z,31.9
2023-04-14T15:55:35.943Z,31.8
2023-04-14T15:57:33.550Z,32.2
2023-04-14T15:59:29.720Z,32.4
2023-04-14T16:01:27.421Z,32.3
2023-04-14T16:14:23.584Z,32.4
2023-04-14T16:16:21.266Z,31.9
2023-04-14T16:18:18.795Z,31.6
2023-04-14T16:20:16.375Z,31.5
2023-04-14T16:22:21.892Z,31.7
2023-04-14T16:24:19.484Z,31.9
2023-04-14T16:26:17.067Z,32
2023-04-14T16:28:14.709Z,31.9
2023-04-14T16:32:09.898Z,31.8
2023-04-14T16:34:07.459Z,31.8
2023-04-14T16:36:13.013Z,31.7
2023-04-14T16:38:10.617Z,31.9
2023-04-14T16:44:03.674Z,32.1
2023-04-14T16:46:01.050Z,32.2
2023-04-14T16:47:58.672Z,32.5
2023-04-14T16:50:04.169Z,33.2
2023-04-14T16:53:59.381Z,33.5
2023-04-14T16:57:54.581Z,33.8
2023-04-14T16:59:52.208Z,33.7
2023-04-14T17:01:49.939Z,33.6
2023-04-14T17:03:55.593Z,34.3
2023-04-14T17:05:52.933Z,34.5
2023-04-14T17:07:50.520Z,34.8
2023-04-14T17:08:53.258Z,34.9
2023-04-14T17:10:50.875Z,34.9
2023-04-14T17:12:48.474Z,34.9
2023-04-14T17:14:46.096Z,34.7
2023-04-14T17:16:51.718Z,34.7
2023-04-14T17:18:49.235Z,34.8
2023-04-14T17:20:47.146Z,35.2
2023-04-14T17:22:44.472Z,35.4
2023-04-14T17:26:39.687Z,35.9
2023-04-14T17:28:37.266Z,36.2
2023-04-14T17:30:42.918Z,36.6
2023-04-14T17:32:40.445Z,36.8
2023-04-14T17:34:38.037Z,36.9
2023-04-14T17:38:33.262Z,36.9
2023-04-14T17:42:28.450Z,36.7
2023-04-14T17:44:33.984Z,36.9
2023-04-14T17:46:31.571Z,37.1
2023-04-14T17:48:29.226Z,37.4
2023-04-14T17:50:26.845Z,37.9
2023-04-14T17:52:24.447Z,38.2
2023-04-14T17:54:22.040Z,38.7
2023-04-14T17:58:25.188Z,40.1
2023-04-14T18:00:22.812Z,40.5
2023-04-14T18:03:23.265Z,40.7
2023-04-14T18:05:20.816Z,40.7
2023-04-14T18:19:12.096Z,42
2023-04-14T18:21:09.725Z,42.4
2023-04-14T18:23:07.323Z,42.7
2023-04-14T18:25:12.868Z,43.4
2023-04-14T18:29:08.106Z,44.4
2023-04-14T18:33:03.399Z,45
2023-04-14T18:36:58.593Z,45.6
2023-04-14T18:41:03.304Z,46
2023-04-14T18:43:00.912Z,46.1
2023-04-14T18:46:56.126Z,46.6
2023-04-14T18:48:53.773Z,46.7
2023-04-14T18:50:51.387Z,46.4
2023-04-14T18:59:19.092Z,47.7
2023-04-14T19:17:05.621Z,47.8
2023-04-14T19:19:11.126Z,47.5
2023-04-14T19:21:08.770Z,47.4
2023-04-14T19:23:06.410Z,47.3
2023-04-14T19:25:04.025Z,47.2
2023-04-14T19:27:01.637Z,47.3
2023-04-14T19:28:59.274Z,47.3
2023-04-14T19:30:56.888Z,47.4
2023-04-14T19:33:02.446Z,47.8
2023-04-14T19:35:00.013Z,47.9
2023-04-14T19:36:57.678Z,47.8
2023-04-14T19:38:55.246Z,47.9
2023-04-14T19:42:50.526Z,48.1
2023-04-14T19:44:48.167Z,48.3
2023-04-14T19:46:53.718Z,49.1
2023-04-14T19:51:51.740Z,49.5
2023-04-14T19:53:49.319Z,49.5
2023-04-14T19:55:46.937Z,49.6
2023-04-14T20:01:47.792Z,51.3
2023-04-14T20:04:05.070Z,51.9
2023-04-14T20:05:42.973Z,52.3
2023-04-14T20:07:40.604Z,52.7
2023-04-14T20:09:38.220Z,53
2023-04-14T20:13:41.360Z,54.2
2023-04-14T20:15:39.010Z,54.5
2023-04-14T20:17:36.682Z,54.7
2023-04-14T20:21:31.872Z,54.7
2023-04-14T20:23:29.493Z,54.4
2023-04-14T20:25:27.103Z,54.3
2023-04-14T20:29:30.262Z,55
2023-04-14T20:31:27.947Z,55.3
2023-04-14T20:33:25.553Z,55.7
2023-04-14T20:35:23.204Z,55.8
2023-04-14T20:37:20.781Z,55.8
2023-04-14T20:39:18.393Z,55.7
2023-04-14T20:41:23.947Z,55.4
2023-04-14T20:45:19.150Z,55.1
2023-04-14T20:46:21.983Z,55
2023-04-14T20:48:19.551Z,55
2023-04-14T20:52:14.802Z,55.1
2023-04-14T20:54:20.329Z,55.6
2023-04-14T20:56:17.951Z,55.8
2023-04-14T20:58:15.574Z,56.2
2023-04-14T21:00:13.178Z,56.6
2023-04-14T21:02:10.923Z,56.9
2023-04-14T21:04:08.560Z,57.2
2023-04-14T21:06:06.034Z,57.3
2023-04-14T21:08:11.541Z,57.4
2023-04-14T21:10:09.195Z,57.4
2023-04-14T21:17:59.737Z,57.7
2023-04-14T21:25:58.050Z,59.2
2023-04-14T21:37:51.686Z,61.6
2023-04-14T21:39:49.296Z,61.8
2023-04-14T21:40:52.064Z,61.9
2023-04-14T21:42:49.710Z,61.8
2023-04-14T21:46:44.924Z,61.9
2023-04-14T21:48:50.473Z,62.3
2023-04-14T21:50:48.075Z,62.6
2023-04-14T21:52:45.683Z,62.8
2023-04-14T21:58:38.559Z,62.8
2023-04-14T22:00:36.176Z,62.7
2023-04-14T22:06:36.939Z,63.2
2023-04-14T22:08:34.569Z,63.5
2023-04-14T22:10:32.414Z,63.7
2023-04-14T22:14:27.416Z,64.9
2023-04-14T22:16:32.960Z,66.7
2023-04-14T22:18:30.581Z,67.1
2023-04-14T22:20:28.177Z,67.8
2023-04-14T22:24:23.416Z,68.7
2023-04-14T22:26:21.021Z,68.9
2023-04-14T22:30:24.150Z,69.9
2023-04-14T22:46:43.168Z,70.1
2023-04-14T22:48:40.694Z,70.4
2023-04-14T22:50:38.336Z,71
2023-04-14T22:54:33.520Z,72.1
2023-04-14T22:58:36.633Z,72.7
2023-04-14T23:00:34.266Z,72.8
2023-04-14T23:04:29.518Z,73.1
2023-04-14T23:06:27.140Z,73.4
2023-04-14T23:10:30.279Z,74.1
2023-04-14T23:12:27.900Z,74.1
2023-04-14T23:14:25.533Z,74.2
2023-04-14T23:16:23.217Z,74.2
2023-04-14T23:18:20.775Z,74.3
2023-04-14T23:20:18.369Z,74.3
2023-04-14T23:22:15.967Z,74.3
2023-04-14T23:24:21.465Z,75
2023-04-14T23:26:19.071Z,75.5
2023-04-14T23:28:16.692Z,76.5
2023-04-14T23:33:14.684Z,78.1
2023-04-14T23:37:17.782Z,79.1
2023-04-14T23:41:13.004Z,78.8
2023-04-14T23:43:10.630Z,78.6
2023-04-14T23:47:08.354Z,78.4
2023-04-14T23:49:11.091Z,78.3
2023-04-14T23:51:16.110Z,78.4
2023-04-14T23:53:06.550Z,78.5
